Time;durP1;ratioP1;P1;durP2;ratioP2;P2;SDS_P1;SDS_P2;PMS_P1;PMS_P2;Temp;Humidity;BMP_temperature;BMP_pressure;BME280_temperature;BME280_humidity;BME280_pressure;Samples;Min_cycle;Max_cycle;Signal;HPM_P1;HPM_P2
2023/03/01 00:00:23;;;;;;;9.90;7.20;;;;;;;-1.47;70.74;102912.63;5262000;28;20049;-70
2023/03/01 00:02:55;;;;;;;11.27;7.37;;;;;;;-1.52;71.18;102917.41;5261906;28;20480;-70
2023/03/01 00:05:26;;;;;;;10.73;7.53;;;;;;;-1.57;71.61;102913.66;5261574;28;20087;-70
2023/03/01 00:07:58;;;;;;;11.20;7.40;;;;;;;-1.58;71.52;102911.88;5262030;28;20515;-70
2023/03/01 00:10:29;;;;;;;10.67;7.77;;;;;;;-1.67;71.72;102914.66;5262632;28;20056;-70
2023/03/01 00:13:00;;;;;;;13.27;8.47;;;;;;;-1.64;71.94;102911.47;5261803;28;20488;-70
2023/03/01 00:15:32;;;;;;;11.77;8.23;;;;;;;-1.71;72.58;102917.78;5262715;28;20033;-70
2023/03/01 00:18:03;;;;;;;11.70;6.77;;;;;;;-1.72;72.42;102912.59;5249540;28;20094;-70
2023/03/01 00:20:34;;;;;;;11.00;6.73;;;;;;;-1.73;72.34;102914.22;5262496;28;20036;-70
2023/03/01 00:23:06;;;;;;;11.63;6.90;;;;;;;-1.66;72.23;102913.91;5262119;28;20041;-70
2023/03/01 00:25:41;;;;;;;10.93;7.53;;;;;;;-1.69;72.40;102915.31;5262270;28;20384;-70
2023/03/01 00:28:13;;;;;;;9.98;6.95;;;;;;;-1.73;72.14;102905.69;5262203;28;20112;-70
2023/03/01 00:30:45;;;;;;;11.40;7.20;;;;;;;-1.67;72.01;102904.44;5260999;28;20035;-70
2023/03/01 00:33:16;;;;;;;9.10;6.47;;;;;;;-1.69;72.26;102910.22;5263203;28;20503;-69
2023/03/01 00:35:48;;;;;;;9.93;6.73;;;;;;;-1.71;72.70;102911.78;5264785;28;20433;-69
2023/03/01 00:38:19;;;;;;;11.23;7.30;;;;;;;-1.78;72.94;102909.56;5268375;28;20032;-69
2023/03/01 00:40:50;;;;;;;10.00;6.97;;;;;;;-1.81;72.93;102904.25;5262018;28;20029;-69
2023/03/01 00:43:22;;;;;;;14.03;7.37;;;;;;;-1.96;73.08;102907.47;5262142;28;20053;-69
2023/03/01 00:45:53;;;;;;;9.60;7.37;;;;;;;-1.99;73.27;102919.16;5262282;28;20044;-69
2023/03/01 00:48:24;;;;;;;13.40;7.67;;;;;;;-1.92;73.35;102911.13;5261977;28;20037;-69
2023/03/01 00:50:56;;;;;;;9.53;6.97;;;;;;;-2.01;73.38;102901.13;5261759;28;20141;-69
2023/03/01 00:53:27;;;;;;;9.73;6.50;;;;;;;-2.09;73.77;102897.13;5259004;28;20037;-69
2023/03/01 00:55:59;;;;;;;10.47;7.57;;;;;;;-2.13;74.23;102892.56;5271807;28;20032;-70
2023/03/01 00:58:30;;;;;;;10.77;7.73;;;;;;;-2.11;74.30;102889.38;5261885;28;20048;-69
2023/03/01 01:01:29;;;;;;;9.67;7.30;;;;;;;-2.23;74.91;102891.88;5261613;28;20082;-70
2023/03/01 01:04:07;;;;;;;9.73;7.55;;;;;;;-2.26;74.73;102883.13;5259410;28;20432;-69
2023/03/01 01:06:44;;;;;;;13.07;7.68;;;;;;;-2.41;75.73;102885.44;5260640;28;20111;-69
2023/03/01 01:09:17;;;;;;;11.65;8.00;;;;;;;-2.51;76.16;102877.84;5261704;28;20053;-69
2023/03/01 01:11:50;;;;;;;;;;;;;;;-2.43;73.95;102885.31;5262640;28;20087;-69
2023/03/01 01:14:21;;;;;;;11.55;7.80;;;;;;;-2.59;74.90;102885.84;5265541;28;20015;-69
2023/03/01 01:16:52;;;;;;;12.93;8.00;;;;;;;-2.52;75.63;102878.66;5265845;28;20112;-69
2023/03/01 01:19:25;;;;;;;10.70;8.00;;;;;;;-2.54;75.98;102880.19;5265793;28;20033;-70
2023/03/01 01:21:56;;;;;;;12.10;8.32;;;;;;;-2.62;76.08;102879.63;5265957;28;20373;-70
2023/03/01 01:24:27;;;;;;;11.83;7.97;;;;;;;-2.62;76.63;102866.88;5265798;28;20029;-71
2023/03/01 01:26:59;;;;;;;11.73;6.90;;;;;;;-2.59;76.52;102862.00;5265783;28;20025;-70
2023/03/01 01:29:31;;;;;;;9.47;7.47;;;;;;;-2.66;76.27;102862.28;5281198;28;20440;-70
2023/03/01 01:32:02;;;;;;;10.40;7.15;;;;;;;-2.65;77.22;102861.53;5264875;28;20033;-69
2023/03/01 01:34:34;;;;;;;9.87;7.63;;;;;;;-2.68;77.39;102845.97;5266115;28;20033;-71
2023/03/01 01:37:07;;;;;;;11.60;8.90;;;;;;;-2.77;77.56;102841.97;5265653;28;20115;-70
2023/03/01 01:39:38;;;;;;;10.15;7.80;;;;;;;-2.84;78.00;102846.50;5265350;28;20032;-69
2023/03/01 01:42:18;;;;;;;9.67;7.77;;;;;;;-2.89;78.31;102842.72;5264176;28;20029;-69
2023/03/01 01:45:24;;;;;;;9.70;7.65;;;;;;;-2.98;79.06;102836.16;5265456;28;20021;-69
2023/03/01 01:48:00;;;;;;;13.20;7.72;;;;;;;-3.03;78.76;102837.44;5265460;28;20056;-69
2023/03/01 01:50:38;;;;;;;10.00;7.45;;;;;;;-3.02;79.26;102830.69;5265160;28;20107;-69
2023/03/01 01:53:14;;;;;;;10.10;7.90;;;;;;;-3.10;79.61;102840.31;5263862;28;20074;-69
2023/03/01 01:55:51;;;;;;;10.77;8.13;;;;;;;-3.09;79.71;102828.44;5274520;28;20025;-69
2023/03/01 01:58:26;;;;;;;10.27;7.50;;;;;;;-3.09;79.77;102833.53;5265289;28;20035;-69
2023/03/01 02:00:57;;;;;;;11.85;8.45;;;;;;;-3.11;79.61;102833.41;5264649;28;20033;-69
2023/03/01 02:03:37;;;;;;;11.80;8.63;;;;;;;-3.16;80.22;102817.75;5264876;28;20021;-69
2023/03/01 02:06:20;;;;;;;11.35;8.10;;;;;;;-3.20;80.67;102825.97;5264878;28;20471;-69
2023/03/01 02:08:52;;;;;;;10.20;7.07;;;;;;;-3.26;80.48;102822.06;5264440;28;20045;-69
2023/03/01 02:11:25;;;;;;;12.95;8.52;;;;;;;-3.25;80.70;102811.06;5264527;28;20029;-69
2023/03/01 02:13:57;;;;;;;10.82;7.65;;;;;;;-3.26;80.44;102811.88;5264903;28;20388;-69
2023/03/01 02:16:28;;;;;;;10.83;7.97;;;;;;;-3.28;80.98;102808.28;5264575;28;20025;-69
2023/03/01 02:19:04;;;;;;;10.33;7.90;;;;;;;-3.33;80.94;102810.50;5264577;28;20032;-69
2023/03/01 02:21:58;;;;;;;13.02;7.53;;;;;;;-3.42;81.54;102805.59;5264801;28;20522;-69
2023/03/01 02:24:53;;;;;;;12.30;9.23;;;;;;;-3.41;81.53;102799.72;5264120;28;20472;-69
2023/03/01 02:27:33;;;;;;;11.90;8.95;;;;;;;-3.40;81.49;102808.25;5264514;28;20067;-69
2023/03/01 02:30:06;;;;;;;16.42;8.40;;;;;;;-3.46;81.21;102801.03;5264675;28;20469;-69
2023/03/01 02:32:41;;;;;;;12.75;8.50;;;;;;;-3.48;81.94;102807.66;5262382;28;20036;-69
2023/03/01 02:35:15;;;;;;;11.63;7.78;;;;;;;-3.55;82.33;102800.31;5264273;28;20377;-69
2023/03/01 02:37:48;;;;;;;10.20;8.13;;;;;;;-3.62;82.31;102803.16;5264226;28;20517;-69
2023/03/01 02:40:21;;;;;;;11.40;8.65;;;;;;;-3.64;82.76;102808.13;5261731;28;20036;-70
2023/03/01 02:42:55;;;;;;;14.07;9.27;;;;;;;-3.73;83.13;102810.88;5254298;28;20044;-69
2023/03/01 02:45:27;;;;;;;10.52;8.05;;;;;;;-3.66;83.41;102813.09;5264124;28;20028;-69
2023/03/01 02:47:58;;;;;;;13.87;8.63;;;;;;;-3.65;83.44;102816.56;5263931;28;20041;-69
2023/03/01 02:50:29;;;;;;;10.70;8.57;;;;;;;-3.62;83.48;102813.34;5264051;28;20512;-69
2023/03/01 02:53:07;;;;;;;11.40;8.27;;;;;;;-3.75;83.08;102817.50;5262067;28;20063;-69
2023/03/01 02:55:38;;;;;;;11.18;7.95;;;;;;;-3.69;83.71;102823.09;5271795;28;20510;-69
2023/03/01 02:58:10;;;;;;;11.03;8.17;;;;;;;-3.67;83.63;102816.44;5263835;28;20125;-69
2023/03/01 03:00:46;;;;;;;13.30;8.20;;;;;;;-3.73;83.93;102810.88;5264031;28;20029;-69
2023/03/01 03:03:21;;;;;;;12.10;8.27;;;;;;;-3.71;83.56;102813.53;5258743;28;20109;-69
2023/03/01 03:05:53;;;;;;;11.30;7.82;;;;;;;-3.76;83.69;102808.06;5258953;28;20033;-69
2023/03/01 03:08:24;;;;;;;12.07;8.03;;;;;;;-3.77;84.69;102803.72;5263214;28;20439;-69
2023/03/01 03:10:55;;;;;;;11.63;8.50;;;;;;;-3.82;85.11;102797.41;5263514;28;20119;-69
2023/03/01 03:13:28;;;;;;;12.60;7.67;;;;;;;-3.82;84.81;102807.59;5263121;28;20560;-69
2023/03/01 03:15:59;;;;;;;10.95;8.05;;;;;;;-3.83;84.67;102804.91;5262246;28;20078;-69
2023/03/01 03:18:30;;;;;;;9.93;7.93;;;;;;;-3.87;84.84;102807.22;5263215;28;20041;-69
2023/03/01 03:21:02;;;;;;;14.37;8.30;;;;;;;-3.91;84.74;102807.78;5263203;28;20104;-70
2023/03/01 03:23:34;;;;;;;10.27;8.23;;;;;;;-3.92;85.03;102807.66;5278587;28;20124;-69
2023/03/01 03:26:05;;;;;;;10.73;7.70;;;;;;;-3.94;85.29;102799.00;5263393;28;20108;-72
2023/03/01 03:28:39;;;;;;;12.67;8.83;;;;;;;-3.96;85.29;102806.53;5264974;28;20480;-68
2023/03/01 03:31:11;;;;;;;9.15;7.57;;;;;;;-3.98;85.79;102817.34;5266126;28;20541;-68
2023/03/01 03:33:43;;;;;;;11.80;8.53;;;;;;;-3.94;86.03;102806.66;5269097;28;20088;-68
2023/03/01 03:36:23;;;;;;;12.73;7.88;;;;;;;-3.97;85.80;102807.28;5268114;28;20025;-68
2023/03/01 03:38:54;;;;;;;11.48;8.38;;;;;;;-4.00;86.16;102801.94;5266344;28;20029;-68
2023/03/01 03:41:26;;;;;;;12.27;8.37;;;;;;;-4.09;86.14;102806.31;5258604;28;20037;-68
2023/03/01 03:43:57;;;;;;;8.73;6.97;;;;;;;-4.10;86.25;102802.88;5253619;28;20137;-68
2023/03/01 03:46:28;;;;;;;9.90;7.60;;;;;;;-4.08;86.65;102808.09;5262844;28;20021;-68
2023/03/01 03:49:00;;;;;;;12.40;9.00;;;;;;;-4.10;87.06;102802.88;5262514;28;20075;-68
2023/03/01 03:51:31;;;;;;;16.67;7.83;;;;;;;-4.12;87.04;102803.50;5263063;28;20048;-68
2023/03/01 03:54:02;;;;;;;12.93;7.83;;;;;;;-4.11;87.28;102803.63;5261047;28;20116;-68
2023/03/01 03:56:34;;;;;;;10.53;7.63;;;;;;;-4.13;87.06;102802.63;5263006;28;20409;-68
2023/03/01 03:59:06;;;;;;;11.20;7.97;;;;;;;-4.15;87.27;102800.72;5262366;28;20029;-69
2023/03/01 04:01:37;;;;;;;10.73;7.90;;;;;;;-4.18;87.35;102800.50;5262511;28;20388;-68
2023/03/01 04:04:08;;;;;;;12.33;8.23;;;;;;;-4.23;87.69;102785.72;5262873;28;20021;-68
2023/03/01 04:06:40;;;;;;;11.73;8.07;;;;;;;-4.26;87.76;102788.03;5262924;28;20032;-68
2023/03/01 04:09:11;;;;;;;11.63;7.90;;;;;;;-4.26;87.98;102785.47;5261247;28;20137;-68
2023/03/01 04:11:43;;;;;;;12.17;6.93;;;;;;;-4.24;88.06;102785.59;5262464;28;20028;-69
2023/03/01 04:14:14;;;;;;;8.93;6.57;;;;;;;-4.32;88.18;102774.81;5254817;28;20061;-69
2023/03/01 04:16:46;;;;;;;11.37;8.00;;;;;;;-4.31;88.01;102783.34;5254727;28;20094;-69
2023/03/01 04:19:17;;;;;;;9.10;7.07;;;;;;;-4.33;88.68;102772.13;5260810;28;20120;-68
2023/03/01 04:21:48;;;;;;;10.63;7.43;;;;;;;-4.33;89.08;102774.69;5261444;28;20033;-69
2023/03/01 04:24:20;;;;;;;9.67;7.17;;;;;;;-4.38;89.73;102781.06;5262009;28;20033;-69
2023/03/01 04:26:51;;;;;;;10.33;6.57;;;;;;;-4.38;89.22;102775.97;5261124;28;20029;-69
2023/03/01 04:29:22;;;;;;;10.50;7.53;;;;;;;-4.38;89.54;102774.31;5262167;28;20116;-69
2023/03/01 04:31:54;;;;;;;10.53;7.30;;;;;;;-4.36;89.32;102764.25;5262031;28;20025;-69
2023/03/01 04:34:26;;;;;;;10.20;7.03;;;;;;;-4.35;89.60;102773.69;5262437;28;20033;-69
2023/03/01 04:36:57;;;;;;;10.82;7.22;;;;;;;-4.38;89.65;102770.88;5251094;28;20079;-69
2023/03/01 04:39:29;;;;;;;13.40;7.50;;;;;;;-4.36;89.84;102771.88;5260235;28;20029;-69
2023/03/01 04:42:00;;;;;;;9.73;6.60;;;;;;;-4.40;89.88;102766.56;5262688;28;20041;-69
2023/03/01 04:44:32;;;;;;;11.10;7.33;;;;;;;-4.40;90.02;102768.22;5262191;28;20453;-69
2023/03/01 04:47:03;;;;;;;9.40;6.83;;;;;;;-4.47;90.29;102759.19;5261877;28;20053;-69
2023/03/01 04:49:35;;;;;;;10.27;6.83;;;;;;;-4.49;90.69;102755.66;5262253;28;20028;-69
2023/03/01 04:52:06;;;;;;;19.37;7.17;;;;;;;-4.50;90.52;102756.41;5264926;28;20036;-68
2023/03/01 04:54:37;;;;;;;10.60;6.67;;;;;;;-4.53;90.66;102751.06;5250863;28;20030;-70
2023/03/01 04:57:09;;;;;;;10.17;7.03;;;;;;;-4.55;90.52;102741.56;5251926;28;20381;-68
2023/03/01 04:59:40;;;;;;;12.27;8.10;;;;;;;-4.58;90.67;102744.72;5253660;28;20487;-69
2023/03/01 05:02:11;;;;;;;12.13;7.47;;;;;;;-4.59;91.20;102748.03;5256400;28;20112;-69
2023/03/01 05:04:43;;;;;;;9.53;7.13;;;;;;;-4.60;91.43;102756.44;5261106;28;20484;-69
2023/03/01 05:07:19;;;;;;;13.93;7.57;;;;;;;-4.65;91.06;102747.56;5261729;28;20048;-69
2023/03/01 05:09:50;;;;;;;11.15;7.32;;;;;;;-4.70;91.19;102753.91;5261552;28;20061;-69
2023/03/01 05:12:21;;;;;;;11.87;8.10;;;;;;;-4.71;91.33;102753.03;5261117;28;20025;-68
2023/03/01 05:14:53;;;;;;;11.10;7.37;;;;;;;-4.69;91.43;102755.69;5261958;28;20035;-68
2023/03/01 05:17:24;;;;;;;13.10;7.80;;;;;;;-4.74;91.66;102755.31;5261065;28;20123;-68
2023/03/01 05:19:55;;;;;;;15.57;8.17;;;;;;;-4.73;91.74;102748.56;5260851;28;20171;-68
2023/03/01 05:22:27;;;;;;;11.33;7.47;;;;;;;-4.76;92.16;102750.09;5248726;28;20128;-68
2023/03/01 05:24:58;;;;;;;11.93;8.00;;;;;;;-4.80;92.35;102737.91;5261208;28;20036;-68
2023/03/01 05:27:29;;;;;;;13.10;7.87;;;;;;;-4.81;92.06;102731.03;5261237;28;20037;-68
2023/03/01 05:30:13;;;;;;;9.33;7.23;;;;;;;-4.83;92.33;102722.41;5261389;28;20040;-68
2023/03/01 05:32:49;;;;;;;11.85;7.63;;;;;;;-4.89;92.88;102721.00;5261069;28;20662;-68
2023/03/01 05:35:21;;;;;;;11.60;8.23;;;;;;;-4.88;93.02;102721.13;5261545;28;20036;-68
2023/03/01 05:37:53;;;;;;;9.88;7.25;;;;;;;-4.91;92.68;102714.91;5261300;28;20183;-68
2023/03/01 05:40:24;;;;;;;11.63;7.50;;;;;;;-4.96;92.52;102714.53;5261192;28;20156;-68
2023/03/01 05:42:56;;;;;;;9.40;7.23;;;;;;;-4.96;93.44;102711.97;5261288;28;20044;-68
2023/03/01 05:45:28;;;;;;;10.63;7.55;;;;;;;-4.96;93.27;102709.44;5261576;28;20039;-68
2023/03/01 05:47:59;;;;;;;10.70;8.43;;;;;;;-5.00;93.59;102712.50;5261166;28;20107;-68
2023/03/01 05:50:42;;;;;;;12.33;7.97;;;;;;;-5.06;94.05;102707.81;5260169;28;20127;-68
2023/03/01 05:53:20;;;;;;;13.38;8.15;;;;;;;-5.07;94.26;102705.13;5248204;28;20029;-69
2023/03/01 05:55:52;;;;;;;15.25;8.90;;;;;;;-5.06;93.72;102709.47;5261237;28;20039;-69
2023/03/01 05:58:24;;;;;;;15.07;9.80;;;;;;;-5.07;93.71;102707.69;5262915;28;20029;-69
2023/03/01 06:00:55;;;;;;;14.50;9.60;;;;;;;-5.08;94.00;102711.00;5260968;28;20512;-69
2023/03/01 06:03:27;;;;;;;21.73;13.80;;;;;;;-5.13;94.86;102706.41;5255871;28;20032;-69
2023/03/01 06:05:58;;;;;;;21.03;13.13;;;;;;;-5.15;94.33;102713.03;5263315;28;20154;-69
2023/03/01 06:08:30;;;;;;;15.93;9.73;;;;;;;-5.16;94.60;102711.25;5264640;28;20068;-69
2023/03/01 06:11:01;;;;;;;15.00;10.63;;;;;;;-5.16;94.62;102705.28;5264799;28;20037;-69
2023/03/01 06:13:32;;;;;;;16.97;10.13;;;;;;;-5.18;95.59;102707.69;5263927;28;20597;-69
2023/03/01 06:16:06;;;;;;;29.13;16.70;;;;;;;-5.19;95.43;102708.44;5263645;28;20029;-69
2023/03/01 06:18:38;;;;;;;20.90;13.82;;;;;;;-5.16;95.46;102698.53;5264304;28;20056;-69
2023/03/01 06:21:10;;;;;;;17.08;10.00;;;;;;;-5.19;95.59;102703.38;5264735;28;20120;-69
2023/03/01 06:23:41;;;;;;;17.63;9.97;;;;;;;-5.18;95.88;102705.16;5264452;28;20094;-69
2023/03/01 06:26:12;;;;;;;16.37;10.57;;;;;;;-5.19;95.64;102713.53;5267001;28;20117;-68
2023/03/01 06:28:45;;;;;;;22.67;12.00;;;;;;;-5.18;96.15;102705.16;5265789;28;20106;-69
2023/03/01 06:31:17;;;;;;;17.00;11.40;;;;;;;-5.14;96.42;102709.72;5264515;28;20041;-69
2023/03/01 06:33:49;;;;;;;18.75;12.57;;;;;;;-5.14;96.61;102711.38;5256495;28;20044;-69
2023/03/01 06:36:21;;;;;;;20.27;13.73;;;;;;;-5.13;96.84;102723.34;5259595;28;20029;-70
2023/03/01 06:38:53;;;;;;;;;;;;;;;-5.20;96.05;102718.50;5263639;28;20056;-69
2023/03/01 06:41:24;;;;;;;20.05;13.07;;;;;;;-5.15;95.74;102713.03;5263959;28;20342;-69
2023/03/01 06:43:56;;;;;;;31.70;20.37;;;;;;;-5.07;96.02;102717.84;5264478;28;20041;-69
2023/03/01 06:46:27;;;;;;;24.93;17.07;;;;;;;-5.08;96.80;102714.44;5264161;28;20040;-69
2023/03/01 06:48:58;;;;;;;13.87;9.13;;;;;;;-5.02;97.00;102717.47;5263086;28;20033;-69
2023/03/01 06:51:30;;;;;;;16.60;10.97;;;;;;;-5.00;96.71;102715.94;5263980;28;20033;-69
2023/03/01 06:54:01;;;;;;;20.50;12.67;;;;;;;-5.00;96.44;102709.97;5264020;28;20460;-69
2023/03/01 06:56:33;;;;;;;22.40;14.20;;;;;;;-4.93;96.79;102714.78;5263970;28;20029;-70
2023/03/01 06:59:05;;;;;;;23.98;15.95;;;;;;;-4.87;97.04;102717.81;5264526;28;20522;-70
2023/03/01 07:01:36;;;;;;;16.90;11.07;;;;;;;-4.80;97.46;102716.66;5264022;28;20033;-69
2023/03/01 07:04:07;;;;;;;32.33;17.47;;;;;;;-4.78;97.10;102700.75;5262203;28;20064;-70
2023/03/01 07:06:39;;;;;;;15.83;10.70;;;;;;;-4.72;96.90;102709.66;5264016;28;20055;-69
2023/03/01 07:09:11;;;;;;;17.35;11.40;;;;;;;-4.65;96.68;102706.84;5262947;28;20049;-69
2023/03/01 07:11:42;;;;;;;16.93;11.40;;;;;;;-4.59;96.46;102705.69;5263707;28;20039;-69
2023/03/01 07:14:13;;;;;;;13.97;10.00;;;;;;;-4.52;96.32;102703.59;5256433;28;20032;-69
2023/03/01 07:16:45;;;;;;;15.07;9.93;;;;;;;-4.46;96.32;102704.09;5257238;28;20036;-69
2023/03/01 07:19:17;;;;;;;12.82;10.02;;;;;;;-4.36;96.26;102713.34;5263760;28;20079;-68
2023/03/01 07:21:48;;;;;;;13.60;9.50;;;;;;;-4.26;96.05;102715.84;5263509;28;20087;-69
2023/03/01 07:24:20;;;;;;;18.37;10.47;;;;;;;-4.17;95.69;102720.75;5263689;28;20033;-69
2023/03/01 07:26:51;;;;;;;14.53;9.97;;;;;;;-4.09;95.69;102722.25;5263579;28;20028;-69
2023/03/01 07:29:23;;;;;;;19.77;11.77;;;;;;;-3.96;95.41;102729.19;5263780;28;20029;-70
2023/03/01 07:31:54;;;;;;;16.33;11.00;;;;;;;-3.85;94.90;102725.81;5257401;28;20083;-70
2023/03/01 07:34:25;;;;;;;14.00;10.27;;;;;;;-3.72;94.72;102718.34;5256184;28;20036;-68
2023/03/01 07:36:57;;;;;;;14.13;11.03;;;;;;;-3.66;93.97;102716.25;5263477;28;20437;-68
2023/03/01 07:39:28;;;;;;;20.77;9.77;;;;;;;-3.52;93.75;102721.53;5263468;28;20032;-69
2023/03/01 07:42:00;;;;;;;17.40;9.47;;;;;;;-3.41;93.21;102715.56;5263325;28;20040;-68
2023/03/01 07:44:31;;;;;;;14.40;9.40;;;;;;;-3.28;92.81;102729.22;5263020;28;20033;-68
2023/03/01 07:47:04;;;;;;;14.00;8.80;;;;;;;-3.17;92.42;102723.25;5262775;28;20037;-68
2023/03/01 07:49:35;;;;;;;13.45;9.65;;;;;;;-3.04;92.37;102719.94;5263006;28;20027;-68
2023/03/01 07:52:09;;;;;;;17.67;8.93;;;;;;;-2.92;91.75;102722.53;5261700;28;20028;-68
2023/03/01 07:54:43;;;;;;;16.85;10.55;;;;;;;-2.75;90.98;102720.44;5262770;28;20024;-68
2023/03/01 07:57:14;;;;;;;17.73;11.05;;;;;;;-2.58;90.66;102723.31;5262716;28;20029;-69
2023/03/01 07:59:46;;;;;;;16.10;10.17;;;;;;;-2.49;90.13;102718.00;5262973;28;20068;-69
2023/03/01 08:02:17;;;;;;;13.87;9.20;;;;;;;-2.33;89.38;102715.75;5261056;28;20123;-69
2023/03/01 08:04:48;;;;;;;16.53;9.63;;;;;;;-2.17;88.78;102712.59;5263214;28;20029;-69
2023/03/01 08:07:20;;;;;;;14.40;9.57;;;;;;;-1.98;88.29;102716.44;5262242;28;20033;-69
2023/03/01 08:09:51;;;;;;;18.53;9.33;;;;;;;-1.85;87.27;102717.41;5261401;28;20107;-69
2023/03/01 08:12:22;;;;;;;18.37;9.30;;;;;;;-1.64;86.04;102717.09;5262090;28;20068;-69
2023/03/01 08:14:54;;;;;;;13.37;9.50;;;;;;;-1.45;84.68;102718.34;5262669;28;20028;-68
2023/03/01 08:17:26;;;;;;;15.43;8.83;;;;;;;-1.28;84.28;102720.34;5261875;28;20041;-69
2023/03/01 08:19:57;;;;;;;12.40;8.70;;;;;;;-1.08;83.70;102720.78;5262361;28;20392;-69
2023/03/01 08:22:28;;;;;;;15.37;9.67;;;;;;;-0.96;82.92;102726.72;5262238;28;20507;-69
2023/03/01 08:25:00;;;;;;;11.33;9.43;;;;;;;-0.76;82.56;102728.00;5262253;28;20029;-70
2023/03/01 08:27:31;;;;;;;12.37;9.10;;;;;;;-0.64;82.01;102721.13;5262225;28;20037;-69
2023/03/01 08:30:03;;;;;;;11.73;8.20;;;;;;;-0.39;80.21;102721.03;5262252;28;20043;-70
2023/03/01 08:32:38;;;;;;;14.27;8.47;;;;;;;-0.06;79.91;102713.66;5262017;28;20029;-69
2023/03/01 08:35:09;;;;;;;14.15;8.95;;;;;;;0.21;79.08;102713.56;5262482;28;20112;-70
2023/03/01 08:37:41;;;;;;;17.90;8.73;;;;;;;0.43;76.82;102707.16;5262022;28;20536;-70
2023/03/01 08:40:13;;;;;;;19.80;8.27;;;;;;;0.68;76.01;102712.06;5262295;28;20040;-70
2023/03/01 08:42:44;;;;;;;10.35;7.88;;;;;;;1.01;75.02;102709.69;5261957;28;20035;-70
2023/03/01 08:45:18;;;;;;;11.20;7.57;;;;;;;1.11;73.60;102705.94;5261918;28;20032;-70
2023/03/01 08:47:52;;;;;;;10.45;7.30;;;;;;;1.29;72.14;102699.28;5261837;28;20488;-70
2023/03/01 08:50:24;;;;;;;10.07;7.43;;;;;;;1.62;70.96;102695.09;5262707;28;20096;-70
2023/03/01 08:52:55;;;;;;;11.27;6.93;;;;;;;1.93;70.09;102683.94;5262189;28;20056;-70
2023/03/01 08:55:26;;;;;;;11.17;8.17;;;;;;;2.19;69.32;102692.13;5262259;28;20056;-71
2023/03/01 08:57:59;;;;;;;9.40;7.53;;;;;;;2.65;67.83;102688.44;5261728;28;20095;-71
2023/03/01 09:00:30;;;;;;;9.10;7.28;;;;;;;2.92;66.30;102696.66;5260817;28;20028;-70
2023/03/01 09:03:02;;;;;;;10.70;7.43;;;;;;;3.14;65.37;102698.63;5262037;28;20090;-70
2023/03/01 09:05:34;;;;;;;11.60;6.97;;;;;;;3.44;64.17;102686.28;5260760;28;20036;-70
2023/03/01 09:08:05;;;;;;;13.77;6.97;;;;;;;3.59;61.33;102683.56;5261822;28;20053;-70
2023/03/01 09:10:39;;;;;;;8.63;6.13;;;;;;;3.61;59.28;102684.50;5260895;28;20440;-70
2023/03/01 09:13:11;;;;;;;8.20;5.90;;;;;;;3.75;57.93;102681.66;5260783;28;20083;-70
2023/03/01 09:15:42;;;;;;;10.10;6.27;;;;;;;4.07;57.57;102680.53;5260707;28;20033;-71
2023/03/01 09:18:14;;;;;;;9.60;6.60;;;;;;;4.17;56.39;102674.09;5261674;28;20033;-70
2023/03/01 09:20:45;;;;;;;9.37;6.33;;;;;;;4.37;56.78;102674.97;5247738;28;20032;-69
2023/03/01 09:23:17;;;;;;;7.97;5.73;;;;;;;4.54;54.09;102670.50;5263788;28;20029;-70
2023/03/01 09:25:48;;;;;;;11.20;6.17;;;;;;;4.77;53.38;102665.44;5255715;28;20079;-70
2023/03/01 09:28:19;;;;;;;7.30;5.53;;;;;;;5.05;53.17;102670.91;5260755;28;20472;-70
2023/03/01 09:30:51;;;;;;;7.73;5.93;;;;;;;5.41;51.75;102665.44;5252902;28;20030;-70
2023/03/01 09:33:22;;;;;;;7.67;5.30;;;;;;;5.48;50.96;102664.84;5260693;28;20033;-69
2023/03/01 09:36:17;;;;;;;8.47;6.13;;;;;;;5.97;52.57;102654.56;5265917;28;20098;-70
2023/03/01 09:38:50;;;;;;;9.30;6.43;;;;;;;6.19;49.96;102659.69;5265899;28;20036;-69
2023/03/01 09:41:37;;;;;;;9.07;6.55;;;;;;;6.50;49.14;102662.47;5266054;28;20032;-70
2023/03/01 09:44:37;;;;;;;18.52;6.20;;;;;;;6.87;49.92;102659.41;5265177;28;20123;-70
2023/03/01 09:47:30;;;;;;;11.00;6.55;;;;;;;7.00;49.15;102647.72;5256598;28;20032;-70
2023/03/01 09:50:05;;;;;;;6.85;5.20;;;;;;;7.11;46.38;102645.47;5253469;28;20025;-70
2023/03/01 09:52:46;;;;;;;7.25;5.53;;;;;;;7.34;44.85;102641.00;5265031;28;20036;-71
2023/03/01 09:55:41;;;;;;;7.60;5.93;;;;;;;7.76;44.96;102643.09;5265395;28;20033;-69
2023/03/01 09:58:19;;;;;;;8.20;5.80;;;;;;;7.57;43.81;102641.69;5265148;28;20065;-69
2023/03/01 10:00:50;;;;;;;8.23;5.40;;;;;;;7.51;41.81;102632.84;5293830;28;20433;-70
2023/03/01 10:03:31;;;;;;;9.70;5.57;;;;;;;7.38;43.10;102624.69;5264977;28;20100;-69
2023/03/01 10:06:19;;;;;;;8.13;5.50;;;;;;;7.99;42.38;102628.16;5265054;28;20021;-69
2023/03/01 10:08:58;;;;;;;9.40;6.25;;;;;;;7.71;41.47;102620.44;5261463;28;20049;-69
2023/03/01 10:11:38;;;;;;;9.10;5.55;;;;;;;7.83;41.61;102611.28;5255859;28;20047;-69
2023/03/01 10:14:24;;;;;;;7.97;5.50;;;;;;;8.38;41.16;102613.59;5264172;28;20037;-69
2023/03/01 10:17:03;;;;;;;11.65;5.72;;;;;;;8.25;39.92;102606.31;5264782;28;20035;-69
2023/03/01 10:19:44;;;;;;;7.57;5.72;;;;;;;8.91;39.93;102603.66;5265079;28;20112;-69
2023/03/01 10:22:24;;;;;;;9.13;5.85;;;;;;;9.47;39.21;102603.16;5264521;28;20031;-69
2023/03/01 10:25:02;;;;;;;7.97;6.20;;;;;;;9.66;38.40;102595.75;5264222;28;20032;-69
2023/03/01 10:27:53;;;;;;;9.07;5.25;;;;;;;10.74;38.36;102584.63;5264557;28;20362;-69
2023/03/01 10:30:38;;;;;;;8.30;5.43;;;;;;;10.63;36.87;102594.03;5264082;28;20085;-70
2023/03/01 10:33:16;;;;;;;7.03;5.20;;;;;;;11.25;36.37;102578.41;5263913;28;20484;-69
2023/03/01 10:35:48;;;;;;;9.75;6.28;;;;;;;11.23;35.55;102581.84;5264702;28;20025;-70
2023/03/01 10:38:20;;;;;;;9.35;5.63;;;;;;;11.43;34.59;102583.00;5264301;28;20032;-70
2023/03/01 10:40:58;;;;;;;12.30;6.63;;;;;;;11.12;34.66;102577.38;5279584;28;20041;-70
2023/03/01 10:43:44;;;;;;;6.78;5.70;;;;;;;11.44;35.26;102581.25;5264490;28;20033;-70
2023/03/01 10:46:36;;;;;;;8.27;5.88;;;;;;;11.76;33.73;102576.41;5264484;28;20053;-69
2023/03/01 10:49:16;;;;;;;8.93;5.63;;;;;;;11.62;34.45;102578.88;5262503;28;20439;-69
2023/03/01 10:51:53;;;;;;;7.72;5.63;;;;;;;11.41;32.82;102584.69;5264298;28;20029;-69
2023/03/01 10:54:33;;;;;;;8.05;5.75;;;;;;;11.76;32.99;102583.38;5264064;28;20047;-69
2023/03/01 10:57:05;;;;;;;8.35;5.57;;;;;;;11.85;31.56;102575.63;5264073;28;20135;-69
2023/03/01 10:59:38;;;;;;;7.97;4.63;;;;;;;12.06;31.48;102569.78;5263618;28;20064;-70
2023/03/01 11:02:42;;;;;;;6.88;5.38;;;;;;;12.47;30.97;102565.75;5263038;28;20033;-69
2023/03/01 11:05:14;;;;;;;8.70;6.20;;;;;;;12.33;31.25;102573.50;5240006;28;20045;-69
2023/03/01 11:07:52;;;;;;;9.43;5.47;;;;;;;12.91;30.48;102573.03;5256698;28;20091;-70
2023/03/01 11:10:35;;;;;;;7.35;6.05;;;;;;;13.44;31.23;102576.84;5258645;28;20099;-69
2023/03/01 11:13:18;;;;;;;7.53;5.88;;;;;;;13.77;30.02;102569.97;5263510;28;20140;-70
2023/03/01 11:16:07;;;;;;;10.40;6.88;;;;;;;14.24;29.36;102574.41;5263450;28;20029;-69
2023/03/01 11:18:39;;;;;;;7.82;6.00;;;;;;;13.17;28.48;102565.34;5263767;28;20025;-69
2023/03/01 11:21:10;;;;;;;8.53;5.47;;;;;;;14.13;28.40;102568.28;5263572;28;20104;-70
2023/03/01 11:23:45;;;;;;;8.43;6.53;;;;;;;14.26;27.87;102566.53;5258447;28;20272;-70
2023/03/01 11:26:17;;;;;;;8.73;5.93;;;;;;;14.69;28.12;102563.94;5254563;28;20037;-70
2023/03/01 11:28:55;;;;;;;7.88;6.05;;;;;;;14.39;26.99;102568.28;5261978;28;20025;-70
2023/03/01 11:31:28;;;;;;;10.02;6.20;;;;;;;14.87;26.47;102573.50;5278779;28;20479;-70
2023/03/01 11:34:14;;;;;;;9.85;7.05;;;;;;;15.57;26.82;102575.03;5262879;28;20410;-70
2023/03/01 11:36:55;;;;;;;8.88;6.50;;;;;;;15.21;26.49;102571.66;5262865;28;20021;-69
2023/03/01 11:39:43;;;;;;;8.10;5.82;;;;;;;15.19;27.10;102570.78;5262873;28;20120;-69
2023/03/01 11:42:24;;;;;;;8.02;5.88;;;;;;;15.47;26.13;102566.31;5263200;28;20104;-70
2023/03/01 11:45:02;;;;;;;7.85;5.97;;;;;;;15.95;26.03;102559.91;5262997;28;20105;-69
2023/03/01 11:47:58;;;;;;;9.52;6.25;;;;;;;15.87;26.21;102557.34;5262803;28;20063;-69
2023/03/01 11:51:02;;;;;;;8.50;5.97;;;;;;;16.34;25.95;102544.69;5263117;28;20063;-69